Terminal Aerodrome Forecast
Issued by NWS

Home | Current Version | Previous Version | Text Only | Print | Product List | Glossary On
Versions: 1 2 3 4 5 6 7 8 9 10 11 12 13
000
FTPA31 PHFO 101726
TAFHTO
TAF
PHTO 101726Z 1018/1118 22004KT P6SM VCSH SCT025 BKN090 OVC150
     FM102000 15008KT P6SM VCSH SCT025 BKN050 OVC120
     FM110300 VRB04KT P6SM VCSH SCT025 BKN050 OVC100
     FM110600 23004KT P6SM VCSH SCT025 BKN050 OVC100=

USA.gov is the U.S. government's official web portal to all federal, state and local government web resources and services.